Time;durP1;ratioP1;P1;durP2;ratioP2;P2;SDS_P1;SDS_P2;PMS_P1;PMS_P2;Temp;Humidity;BMP_temperature;BMP_pressure;BME280_temperature;BME280_humidity;BME280_pressure;Samples;Min_cycle;Max_cycle;Signal;HPM_P1;HPM_P2
2021/05/11 00:01:08;;;;;;;1.70;1.60;;;17.60;98.70;;;;;;6163889;23;20486;-81
2021/05/11 00:04:09;;;;;;;1.83;1.73;;;17.50;99.30;;;;;;6151729;23;20411;-82
2021/05/11 00:07:55;;;;;;;2.03;1.93;;;17.40;99.90;;;;;;6154119;23;20776;-82
2021/05/11 00:11:39;;;;;;;1.93;1.83;;;17.20;99.90;;;;;;6120482;23;20462;-79
2021/05/11 00:15:09;;;;;;;2.50;2.30;;;17.20;99.90;;;;;;6040375;23;20406;-80
2021/05/11 00:18:11;;;;;;;1.93;1.83;;;17.20;99.90;;;;;;6085577;23;20399;-81
2021/05/11 00:24:53;;;;;;;2.90;2.70;;;16.90;99.90;;;;;;6053960;23;20434;-81
2021/05/11 00:27:58;;;;;;;4.23;2.63;;;17.00;99.90;;;;;;6057793;23;20410;-81
2021/05/11 00:31:43;;;;;;;;;;;;;;;;;;;;;
2021/05/11 00:34:40;;;;;;;2.70;2.50;;;16.80;99.90;;;;;;6002565;23;20412;-82
2021/05/11 00:37:39;;;;;;;2.63;2.43;;;16.90;99.90;;;;;;5977589;23;20470;-82
2021/05/11 00:40:34;;;;;;;2.80;2.60;;;16.80;99.90;;;;;;5917042;24;20430;-82
2021/05/11 00:43:59;;;;;;;3.40;3.10;;;16.60;99.90;;;;;;5838731;24;20424;-81
2021/05/11 00:50:22;;;;;;;3.40;3.10;;;16.50;99.90;;;;;;5795805;24;20460;-82
2021/05/11 00:53:29;;;;;;;2.77;2.57;;;16.50;99.90;;;;;;5835792;24;20434;-81
2021/05/11 00:56:38;;;;;;;4.17;2.90;;;16.70;99.90;;;;;;5835414;24;20436;-83
2021/05/11 00:59:44;;;;;;;3.37;3.07;;;16.60;99.90;;;;;;5877393;24;20405;-81
2021/05/11 01:02:27;;;;;;;3.33;3.13;;;16.80;99.90;;;;;;5919512;24;20429;-82
2021/05/11 01:05:14;;;;;;;3.77;3.47;;;16.80;99.90;;;;;;5917340;24;20490;-82
2021/05/11 01:08:05;;;;;;;3.53;3.33;;;16.80;99.90;;;;;;5892919;24;21324;-82
2021/05/11 01:11:16;;;;;;;3.70;3.40;;;16.80;99.90;;;;;;5947969;23;20516;-83
2021/05/11 01:14:05;;;;;;;3.57;3.27;;;16.70;99.90;;;;;;5975120;23;20419;-81
2021/05/11 01:17:03;;;;;;;4.53;3.60;;;16.80;99.90;;;;;;5984195;23;20461;-82
2021/05/11 01:20:13;;;;;;;3.80;3.50;;;17.00;99.90;;;;;;6039157;23;20834;-82
2021/05/11 01:27:24;;;;;;;4.23;3.80;;;16.70;99.90;;;;;;6052044;23;20410;-82
2021/05/11 01:47:20;;;;;;;4.40;4.10;;;16.40;99.90;;;;;;6121815;23;20419;-81
2021/05/11 01:54:13;;;;;;;4.50;4.20;;;16.60;99.90;;;;;;6119227;23;21384;-82
2021/05/11 02:23:31;;;;;;;4.17;3.87;;;16.10;99.90;;;;;;6143786;23;20406;-82
2021/05/11 02:26:12;;;;;;;3.80;3.50;;;16.10;99.90;;;;;;6126179;23;20407;-81
2021/05/11 02:28:54;;;;;;;4.47;4.07;;;16.20;99.90;;;;;;6123454;23;20446;-82
2021/05/11 02:32:00;;;;;;;6.70;4.00;;;16.20;99.90;;;;;;6148994;23;20438;-82
2021/05/11 02:34:49;;;;;;;4.23;3.93;;;16.20;99.90;;;;;;6124149;23;20419;-83
2021/05/11 02:38:16;;;;;;;;;;;;;;;;;;;;;
2021/05/11 02:41:13;;;;;;;4.83;4.53;;;16.40;99.90;;;;;;6148384;23;20439;-80
2021/05/11 02:43:58;;;;;;;4.57;4.27;;;16.10;99.90;;;;;;6122556;23;21034;-80
2021/05/11 02:47:01;;;;;;;4.80;4.40;;;16.20;99.90;;;;;;6148173;23;20425;-82
2021/05/11 02:56:52;;;;;;;;;;;;;;;;;;;;;
2021/05/11 02:59:54;;;;;;;5.37;4.97;;;16.20;99.90;;;;;;6148051;23;20462;-80
2021/05/11 03:03:03;;;;;;;4.70;4.30;;;16.10;99.90;;;;;;6123133;23;20797;-82
2021/05/11 03:06:17;;;;;;;;;;;;;;;;;;;;;
2021/05/11 03:12:59;;;;;;;4.80;4.40;;;16.20;99.90;;;;;;6047675;23;20436;-82
2021/05/11 03:16:23;;;;;;;5.00;4.57;;;16.30;99.90;;;;;;6094496;23;20515;-82
2021/05/11 03:22:55;;;;;;;6.10;5.57;;;16.50;99.90;;;;;;6115768;23;20431;-83
2021/05/11 03:25:42;;;;;;;5.90;5.40;;;16.70;99.90;;;;;;6097082;23;20416;-81
2021/05/11 03:28:36;;;;;;;5.90;5.40;;;16.60;99.90;;;;;;6121007;23;20477;-82
2021/05/11 03:31:25;;;;;;;5.90;5.40;;;16.70;99.90;;;;;;6084826;23;20442;-81
2021/05/11 03:34:15;;;;;;;5.47;4.97;;;16.40;99.90;;;;;;6097049;23;20411;-81
2021/05/11 03:37:09;;;;;;;5.97;5.47;;;16.30;99.90;;;;;;6029583;23;20442;-79
2021/05/11 03:39:58;;;;;;;6.20;5.70;;;16.50;99.90;;;;;;6010669;23;20422;-81
2021/05/11 03:43:09;;;;;;;5.70;5.20;;;16.40;99.90;;;;;;6033584;23;20554;-79
2021/05/11 03:46:03;;;;;;;5.67;5.17;;;16.00;99.90;;;;;;6031423;23;20386;-80
2021/05/11 03:49:05;;;;;;;6.77;5.73;;;16.10;99.90;;;;;;5919491;24;20450;-82
2021/05/11 03:51:49;;;;;;;6.67;6.07;;;16.30;99.90;;;;;;5922152;24;20442;-80
2021/05/11 03:57:52;;;;;;;6.23;5.73;;;16.50;99.90;;;;;;5928425;24;20453;-80
2021/05/11 04:00:55;;;;;;;6.17;5.67;;;16.30;99.90;;;;;;6025416;23;20457;-82
2021/05/11 04:04:11;;;;;;;6.70;6.17;;;16.30;99.90;;;;;;6191910;23;20414;-83
2021/05/11 04:10:59;;;;;;;8.20;7.40;;;16.60;99.90;;;;;;6189908;23;20421;-82
2021/05/11 04:21:04;;;;;;;;;;;;;;;;;;;;;
2021/05/11 04:28:25;;;;;;;6.30;5.80;;;16.20;99.90;;;;;;6090348;23;20535;-81
2021/05/11 04:31:09;;;;;;;6.20;5.70;;;16.40;99.90;;;;;;6025681;23;20424;-83
2021/05/11 04:41:47;;;;;;;5.20;4.70;;;16.70;99.90;;;;;;6116385;23;20474;-82
2021/05/11 04:50:05;;;;;;;5.00;4.60;;;16.20;99.90;;;;;;5980498;24;20450;-79
2021/05/11 04:53:22;;;;;;;6.43;5.93;;;16.60;99.90;;;;;;5947118;24;20442;-79
2021/05/11 05:01:53;;;;;;;6.13;5.53;;;16.50;99.90;;;;;;6071897;23;20465;-82
2021/05/11 05:08:46;;;;;;;3.53;2.80;;;16.10;99.90;;;;;;6061948;23;20576;-82
2021/05/11 05:11:53;;;;;;;3.10;2.80;;;16.10;99.90;;;;;;6046348;23;20421;-83
2021/05/11 05:14:37;;;;;;;3.17;2.43;;;16.10;99.90;;;;;;6072132;23;20417;-81
2021/05/11 05:17:50;;;;;;;4.50;3.00;;;16.20;99.90;;;;;;6060868;23;20603;-81
2021/05/11 05:21:08;;;;;;;5.23;2.47;;;16.20;99.90;;;;;;6111675;23;20460;-82
2021/05/11 05:39:00;;;;;;;2.23;2.03;;;16.70;99.90;;;;;;6130053;23;20396;-82
2021/05/11 05:59:41;;;;;;;3.70;3.00;;;17.50;99.90;;;;;;6093400;23;20424;-81
2021/05/11 06:06:27;;;;;;;6.30;3.40;;;16.80;99.90;;;;;;6056657;23;20448;-80
2021/05/11 06:20:45;;;;;;;4.00;2.03;;;16.90;99.90;;;;;;6058176;23;20845;-79
2021/05/11 06:23:54;;;;;;;2.33;2.00;;;16.60;99.90;;;;;;5974236;24;20435;-83
2021/05/11 06:26:56;;;;;;;4.90;2.20;;;16.60;99.90;;;;;;5952952;23;20416;-84
2021/05/11 06:33:30;;;;;;;3.93;3.23;;;16.60;99.90;;;;;;6005787;23;20403;-81
2021/05/11 06:59:00;;;;;;;3.83;2.20;;;17.20;99.90;;;;;;6089288;23;20468;-82
2021/05/11 07:09:14;;;;;;;4.33;2.63;;;17.50;99.90;;;;;;5992268;24;20443;-82
2021/05/11 07:27:28;;;;;;;6.20;3.30;;;17.50;99.90;;;;;;6038498;23;20405;-82
2021/05/11 07:34:54;;;;;;;5.30;3.20;;;17.40;99.90;;;;;;6038033;23;20810;-83
2021/05/11 07:38:32;;;;;;;4.93;3.97;;;17.30;99.90;;;;;;6038831;23;20455;-82
2021/05/11 07:42:08;;;;;;;3.63;3.27;;;17.50;99.90;;;;;;5974041;23;20531;-82
2021/05/11 08:28:25;;;;;;;5.20;4.80;;;17.80;99.90;;;;;;6207941;23;20488;-83
2021/05/11 08:31:45;;;;;;;7.60;5.40;;;17.90;99.90;;;;;;6209935;23;20508;-83
2021/05/11 08:35:55;;;;;;;;;;;;;;;;;;;;;
2021/05/11 08:42:28;;;;;;;7.93;5.67;;;17.50;99.90;;;;;;6135557;23;20461;-81
2021/05/11 08:45:34;;;;;;;11.03;6.53;;;17.80;99.90;;;;;;6114947;23;21162;-82
2021/05/11 08:49:05;;;;;;;;;;;;;;;;;;;;;
2021/05/11 09:33:21;;;;;;;9.63;8.60;;;19.60;97.70;;;;;;5995382;24;20407;-82
2021/05/11 09:45:14;;;;;;;8.00;7.43;;;19.10;98.10;;;;;;6117759;23;20455;-80
2021/05/11 10:44:38;;;;;;;;;;;;;;;;;;;;;
2021/05/11 10:51:45;;;;;;;9.00;8.20;;;18.70;99.00;;;;;;5827007;24;20467;-81
2021/05/11 11:11:11;;;;;;;9.20;8.43;;;18.60;99.00;;;;;;5860255;24;20461;-82
2021/05/11 11:14:15;;;;;;;9.23;8.43;;;18.70;99.00;;;;;;5893610;24;20428;-82
2021/05/11 11:17:11;;;;;;;9.47;8.60;;;18.90;99.10;;;;;;5872771;24;20500;-82
2021/05/11 11:20:11;;;;;;;8.70;7.90;;;18.70;98.90;;;;;;5846434;24;20407;-81
2021/05/11 11:23:51;;;;;;;9.43;8.00;;;18.70;98.90;;;;;;5956306;24;20431;-82
2021/05/11 11:37:54;;;;;;;;;;;;;;;;;;;;;
2021/05/11 11:41:21;;;;;;;8.90;8.10;;;18.20;99.90;;;;;;5139745;27;20472;-81
2021/05/11 11:44:45;;;;;;;8.23;7.53;;;18.80;99.40;;;;;;5139512;27;20477;-80
2021/05/11 11:48:19;;;;;;;7.37;6.70;;;18.60;99.60;;;;;;5065655;28;20504;-82
2021/05/11 11:52:19;;;;;;;9.27;7.00;;;18.50;99.40;;;;;;4939825;28;20562;-81
2021/05/11 12:03:09;;;;;;;8.43;7.73;;;18.30;99.40;;;;;;4924950;29;20450;-83
2021/05/11 12:06:49;;;;;;;;;;;;;;;;;;;;;
2021/05/11 12:14:15;;;;;;;9.37;8.47;;;18.30;99.90;;;;;;4902114;29;20509;-80
2021/05/11 12:29:09;;;;;;;11.33;8.97;;;18.20;99.90;;;;;;5119844;27;20444;-80
2021/05/11 12:32:29;;;;;;;11.87;10.07;;;18.00;99.90;;;;;;5111211;27;20481;-79
2021/05/11 12:35:41;;;;;;;12.47;10.07;;;18.00;99.90;;;;;;4767805;27;10001193;-80
2021/05/11 12:38:52;;;;;;;12.10;11.07;;;18.00;99.90;;;;;;5133314;27;21248;-82
2021/05/11 12:45:15;;;;;;;10.20;9.23;;;18.00;99.90;;;;;;5105143;27;20965;-81
2021/05/11 12:48:34;;;;;;;;;;;;;;;;;;;;;
2021/05/11 12:55:31;;;;;;;;;;;;;;;;;;;;;
2021/05/11 13:27:32;;;;;;;8.97;8.17;;;18.70;99.90;;;;;;4961845;28;20523;-82
2021/05/11 13:37:26;;;;;;;8.13;7.33;;;18.00;99.90;;;;;;4845614;29;20960;-81
2021/05/11 13:40:24;;;;;;;9.00;8.17;;;18.10;99.90;;;;;;4845694;29;20478;-82
2021/05/11 13:43:02;;;;;;;9.20;8.40;;;18.20;99.90;;;;;;4854011;29;20525;-83
2021/05/11 13:46:43;;;;;;;10.17;9.10;;;18.40;99.90;;;;;;4958959;28;20563;-84
2021/05/11 13:50:11;;;;;;;9.40;8.50;;;18.30;99.90;;;;;;4964943;28;20487;-83
2021/05/11 13:53:42;;;;;;;;;;;;;;;;;;;;;
2021/05/11 14:06:49;;;;;;;9.67;8.77;;;17.40;99.90;;;;;;4984953;28;20430;-81
2021/05/11 14:09:46;;;;;;;10.40;9.40;;;17.30;99.90;;;;;;4992109;28;20434;-83
2021/05/11 14:13:20;;;;;;;8.63;7.83;;;17.30;99.90;;;;;;4939816;29;20489;-83
2021/05/11 14:16:31;;;;;;;9.67;8.87;;;17.30;99.90;;;;;;5016720;28;20473;-83
2021/05/11 14:19:43;;;;;;;9.80;8.90;;;17.20;99.90;;;;;;5001122;28;20449;-83
2021/05/11 14:23:05;;;;;;;10.33;9.30;;;17.30;99.90;;;;;;4991544;28;20442;-83
2021/05/11 14:26:24;;;;;;;9.40;8.50;;;17.20;99.90;;;;;;4993151;28;20471;-82
2021/05/11 14:29:51;;;;;;;;;;;;;;;;;;;;;
2021/05/11 14:33:05;;;;;;;;;;;;;;;;;;;;;
2021/05/11 14:36:09;;;;;;;;;;;;;;;;;;;;;
2021/05/11 14:39:47;;;;;;;6.83;6.33;;;17.50;99.90;;;;;;5055235;28;20461;-83
2021/05/11 14:42:46;;;;;;;6.87;6.33;;;17.60;99.90;;;;;;5025970;28;20454;-83
2021/05/11 14:45:33;;;;;;;5.93;5.43;;;17.50;99.90;;;;;;5027993;28;20457;-84
2021/05/11 14:48:50;;;;;;;5.00;4.40;;;17.50;99.90;;;;;;5033847;28;20472;-83
2021/05/11 14:52:12;;;;;;;;;;;;;;;;;;;;;
2021/05/11 14:55:48;;;;;;;;;;;;;;;;;;;;;
2021/05/11 14:58:45;;;;;;;7.27;6.67;;;17.40;99.90;;;;;;4878182;29;20436;-81
2021/05/11 15:02:06;;;;;;;;;;;;;;;;;;;;;
2021/05/11 15:09:34;;;;;;;11.10;10.00;;;17.40;99.90;;;;;;4759276;29;20548;-84
2021/05/11 15:12:48;;;;;;;;;;;;;;;;;;;;;
2021/05/11 15:25:39;;;;;;;9.10;7.57;;;17.60;99.90;;;;;;4912765;28;20463;-81
2021/05/11 15:28:40;;;;;;;;;;;;;;;;;;;;;
2021/05/11 15:31:15;;;;;;;8.53;7.80;;;17.50;99.90;;;;;;4959663;28;20490;-80
2021/05/11 15:34:06;;;;;;;8.50;7.20;;;17.50;99.90;;;;;;4950159;28;20635;-80
2021/05/11 15:40:52;;;;;;;;;;;;;;;;;;;;;
2021/05/11 15:44:07;;;;;;;7.90;6.50;;;17.50;99.90;;;;;;4744923;29;20537;-81
2021/05/11 15:51:31;;;;;;;7.47;6.57;;;17.60;99.90;;;;;;5011766;28;20464;-80
2021/05/11 15:54:40;;;;;;;8.73;7.20;;;17.50;99.90;;;;;;4987924;28;20474;-80
2021/05/11 15:57:40;;;;;;;;;;;;;;;;;;;;;
2021/05/11 16:00:19;;;;;;;8.30;7.50;;;17.60;99.90;;;;;;4999119;28;20548;-81
2021/05/11 16:03:37;;;;;;;10.97;7.30;;;17.60;99.90;;;;;;4987986;28;20677;-82
2021/05/11 16:07:08;;;;;;;7.33;6.60;;;17.60;99.90;;;;;;4989601;28;20499;-81
2021/05/11 16:10:28;;;;;;;6.97;6.33;;;17.70;99.90;;;;;;4952105;28;20443;-80
2021/05/11 16:13:12;;;;;;;8.00;7.20;;;17.60;99.90;;;;;;4978505;28;20480;-81
2021/05/11 16:24:04;;;;;;;7.70;7.00;;;17.50;99.90;;;;;;4906582;29;20500;-82
2021/05/11 16:27:15;;;;;;;;;;;;;;;;;;;;;
2021/05/11 16:30:56;;;;;;;6.97;6.27;;;17.50;99.90;;;;;;4843709;29;20468;-80
2021/05/11 16:34:03;;;;;;;7.80;7.00;;;17.80;99.90;;;;;;4904895;29;20492;-80
2021/05/11 16:37:31;;;;;;;6.20;5.67;;;17.70;99.90;;;;;;4963730;28;20504;-80
2021/05/11 16:40:24;;;;;;;7.10;6.40;;;17.60;99.90;;;;;;5014064;28;20470;-81
2021/05/11 16:43:34;;;;;;;8.93;6.83;;;17.40;99.90;;;;;;5018708;28;20492;-78
2021/05/11 16:46:46;;;;;;;9.80;8.33;;;17.30;99.90;;;;;;5008818;28;20573;-81
2021/05/11 16:50:10;;;;;;;6.83;6.20;;;17.30;99.90;;;;;;5015981;28;20516;-80
2021/05/11 16:53:24;;;;;;;7.90;7.10;;;17.30;99.90;;;;;;4913015;29;20490;-82
2021/05/11 16:56:58;;;;;;;;;;;;;;;;;;;;;
2021/05/11 17:05:50;;;;;;;7.20;6.50;;;17.30;99.90;;;;;;5037272;28;20606;-82
2021/05/11 17:08:40;;;;;;;9.37;8.40;;;17.30;99.90;;;;;;5027397;28;20438;-84
2021/05/11 17:11:30;;;;;;;18.27;16.40;;;17.30;99.90;;;;;;4990719;28;21057;-83
2021/05/11 17:14:30;;;;;;;28.70;26.00;;;17.20;99.90;;;;;;4984569;28;21074;-81
2021/05/11 17:17:55;;;;;;;14.50;13.20;;;17.30;99.90;;;;;;5003485;28;20447;-82
2021/05/11 17:20:54;;;;;;;8.63;7.67;;;17.20;99.90;;;;;;4942408;28;20469;-84
2021/05/11 17:27:47;;;;;;;7.73;7.03;;;17.10;99.90;;;;;;4965109;28;20449;-81
2021/05/11 17:30:40;;;;;;;9.80;8.53;;;17.10;99.90;;;;;;4986791;28;20506;-83
2021/05/11 17:37:27;;;;;;;9.27;8.37;;;17.10;99.90;;;;;;4926342;29;20454;-83
2021/05/11 17:40:40;;;;;;;7.80;7.03;;;17.00;99.90;;;;;;4943422;28;21328;-80
2021/05/11 17:44:03;;;;;;;17.27;15.43;;;17.00;99.90;;;;;;4959328;28;20481;-82
2021/05/11 17:46:55;;;;;;;12.70;10.90;;;17.00;99.90;;;;;;4985728;28;20467;-81
2021/05/11 17:49:52;;;;;;;;;;;;;;;;;;;;;
2021/05/11 17:53:44;;;;;;;8.80;8.00;;;16.90;99.90;;;;;;4981059;28;20483;-82
2021/05/11 17:59:59;;;;;;;8.93;6.90;;;16.80;99.90;;;;;;4904612;29;20455;-82
2021/05/11 18:03:08;;;;;;;9.90;8.43;;;16.80;99.90;;;;;;4970810;28;20992;-81
2021/05/11 18:06:16;;;;;;;11.33;8.37;;;16.80;99.90;;;;;;4946913;28;20488;-81
2021/05/11 18:09:00;;;;;;;11.17;9.60;;;16.80;99.90;;;;;;4950038;28;20479;-82
2021/05/11 18:12:08;;;;;;;11.73;8.60;;;16.70;99.90;;;;;;4965657;28;20540;-82
2021/05/11 18:15:15;;;;;;;11.37;6.87;;;16.80;99.90;;;;;;4968673;28;20453;-82
2021/05/11 18:18:15;;;;;;;7.83;6.57;;;16.80;99.90;;;;;;5002669;28;20456;-82
2021/05/11 18:21:11;;;;;;;9.57;7.70;;;16.70;99.90;;;;;;5027404;28;20553;-82
2021/05/11 18:27:55;;;;;;;9.97;7.90;;;16.70;99.90;;;;;;5016879;28;20866;-83
2021/05/11 18:30:46;;;;;;;11.60;8.30;;;16.80;99.90;;;;;;5033375;28;21010;-82
2021/05/11 18:33:31;;;;;;;8.30;7.60;;;16.80;99.90;;;;;;5041625;28;21748;-83
2021/05/11 18:39:27;;;;;;;7.30;6.60;;;16.80;99.90;;;;;;5012106;28;20508;-82
2021/05/11 18:41:55;;;;;;;9.40;8.40;;;16.80;99.90;;;;;;5030205;28;20495;-82
2021/05/11 18:44:23;;;;;;;8.50;7.70;;;16.80;99.90;;;;;;5027749;28;20472;-83
2021/05/11 18:46:52;;;;;;;7.03;6.13;;;16.80;99.90;;;;;;5025178;28;20464;-82
2021/05/11 18:49:20;;;;;;;7.60;6.80;;;16.70;99.90;;;;;;5028142;28;20449;-82
2021/05/11 18:51:49;;;;;;;9.03;5.90;;;16.70;99.90;;;;;;5029579;28;20484;-83
2021/05/11 18:54:17;;;;;;;6.40;5.37;;;16.60;99.90;;;;;;5024916;28;21078;-82
2021/05/11 18:56:47;;;;;;;6.83;5.87;;;16.60;99.90;;;;;;5029289;28;20472;-82
2021/05/11 18:59:15;;;;;;;8.90;8.00;;;16.60;99.90;;;;;;5030787;28;20454;-83
2021/05/11 19:01:44;;;;;;;6.23;5.63;;;16.60;99.90;;;;;;5038810;28;20518;-79
2021/05/11 19:04:11;;;;;;;7.23;6.60;;;16.60;99.90;;;;;;5039198;28;20476;-81
2021/05/11 19:06:39;;;;;;;5.70;5.10;;;16.60;99.90;;;;;;5042883;28;20460;-81
2021/05/11 19:09:08;;;;;;;6.63;5.93;;;16.60;99.90;;;;;;5039730;28;21465;-82
2021/05/11 19:11:36;;;;;;;6.23;5.73;;;16.60;99.90;;;;;;5037173;28;20475;-81
2021/05/11 19:14:05;;;;;;;5.43;4.30;;;16.60;99.90;;;;;;5030014;28;20561;-82
2021/05/11 19:16:38;;;;;;;5.90;4.80;;;16.50;99.90;;;;;;5031598;28;20449;-83
2021/05/11 19:19:07;;;;;;;4.77;4.40;;;16.50;99.90;;;;;;5038126;28;20454;-82
2021/05/11 19:22:04;;;;;;;5.80;5.03;;;16.50;99.90;;;;;;4770227;22;9999708;-82
2021/05/11 19:24:49;;;;;;;9.73;5.97;;;16.50;99.90;;;;;;5024016;28;20206;-82
2021/05/11 19:28:36;;;;;;;8.57;4.50;;;16.50;99.90;;;;;;4329708;28;10000984;-81
2021/05/11 19:32:07;;;;;;;6.40;5.50;;;16.40;99.90;;;;;;4661020;28;9999716;-81
2021/05/11 19:35:15;;;;;;;9.13;5.30;;;16.40;99.90;;;;;;4979196;28;20354;-82
2021/05/11 19:41:49;;;;;;;;;;;;;;;;;;;;;
2021/05/11 19:45:09;;;;;;;6.20;5.10;;;16.30;99.90;;;;;;4982639;28;20415;-81
2021/05/11 19:51:59;;;;;;;6.10;4.87;;;16.30;99.90;;;;;;4983541;28;20446;-83
2021/05/11 20:00:04;;;;;;;5.83;4.00;;;16.10;99.90;;;;;;4964396;28;20436;-83
2021/05/11 20:10:50;;;;;;;8.37;4.20;;;15.90;99.90;;;;;;5004735;28;20401;-80
2021/05/11 20:18:38;;;;;;;6.10;4.70;;;15.90;99.90;;;;;;4869883;29;20501;-82
2021/05/11 20:21:24;;;;;;;7.20;5.60;;;15.90;99.90;;;;;;4810225;29;20491;-81
2021/05/11 20:24:42;;;;;;;6.00;4.87;;;15.90;99.90;;;;;;4803054;29;20450;-83
2021/05/11 20:27:56;;;;;;;10.00;5.70;;;15.90;99.90;;;;;;4807353;29;20485;-83
2021/05/11 20:31:20;;;;;;;7.20;5.80;;;15.90;99.90;;;;;;4809556;29;20522;-81
2021/05/11 20:34:23;;;;;;;8.27;6.20;;;15.90;99.90;;;;;;4803589;29;20602;-84
2021/05/11 20:37:35;;;;;;;6.80;5.53;;;15.90;99.90;;;;;;4853375;29;20436;-83
2021/05/11 20:41:08;;;;;;;6.30;5.70;;;15.90;99.90;;;;;;4898677;23;20465;-83
2021/05/11 20:48:13;;;;;;;7.63;5.30;;;16.00;99.90;;;;;;4953294;28;20511;-81
2021/05/11 20:51:07;;;;;;;8.83;5.60;;;16.00;99.90;;;;;;4944080;28;20472;-80
2021/05/11 20:54:03;;;;;;;6.17;4.80;;;16.00;99.90;;;;;;4969707;28;20468;-81
2021/05/11 21:00:43;;;;;;;6.23;5.60;;;15.90;99.90;;;;;;4989520;28;20470;-82
2021/05/11 21:04:06;;;;;;;7.60;5.83;;;15.80;99.90;;;;;;5009142;28;20538;-81
2021/05/11 21:06:44;;;;;;;8.17;5.70;;;15.70;99.90;;;;;;5038788;28;20461;-82
2021/05/11 21:09:49;;;;;;;5.23;3.83;;;15.70;99.90;;;;;;4968903;28;21487;-83
2021/05/11 21:12:19;;;;;;;5.10;4.60;;;15.60;99.90;;;;;;4977913;28;20456;-83
2021/05/11 21:15:54;;;;;;;;;;;;;;;;;;;;;
2021/05/11 21:19:11;;;;;;;;;;;;;;;;;;;;;
2021/05/11 21:22:48;;;;;;;4.73;4.10;;;15.50;99.90;;;;;;4947858;28;20495;-82
2021/05/11 21:25:49;;;;;;;5.50;4.37;;;15.50;99.90;;;;;;4902849;28;20454;-82
2021/05/11 21:28:35;;;;;;;;;;;;;;;;;;;;;
2021/05/11 21:31:35;;;;;;;5.87;4.53;;;15.50;99.90;;;;;;4927858;29;20481;-82
2021/05/11 21:34:51;;;;;;;5.63;4.77;;;15.40;99.90;;;;;;4925871;29;20474;-82
2021/05/11 21:38:24;;;;;;;6.93;4.80;;;15.50;99.90;;;;;;4919039;29;20440;-83
2021/05/11 21:41:29;;;;;;;;;;;;;;;;;;;;;
2021/05/11 21:44:18;;;;;;;5.53;5.10;;;15.40;99.90;;;;;;4965801;28;20464;-81
2021/05/11 21:47:13;;;;;;;6.40;5.00;;;15.50;99.90;;;;;;4951880;28;20471;-82
2021/05/11 21:50:05;;;;;;;6.40;4.50;;;15.50;99.90;;;;;;4936264;28;21141;-83
2021/05/11 21:52:35;;;;;;;5.47;4.80;;;15.50;99.90;;;;;;4952179;28;20452;-82
2021/05/11 21:55:37;;;;;;;6.77;5.30;;;15.50;99.90;;;;;;4957785;28;20853;-83
2021/05/11 21:58:22;;;;;;;6.00;5.50;;;15.50;99.90;;;;;;4946970;28;20462;-82
2021/05/11 22:01:28;;;;;;;5.63;5.10;;;15.50;99.90;;;;;;4890811;29;20557;-82
2021/05/11 22:04:13;;;;;;;8.93;5.13;;;15.50;99.90;;;;;;4923955;29;20465;-82
2021/05/11 22:06:58;;;;;;;5.87;5.30;;;15.40;99.90;;;;;;4946340;28;20449;-82
2021/05/11 22:09:37;;;;;;;7.50;5.30;;;15.40;99.90;;;;;;4960303;28;22962;-83
2021/05/11 22:12:47;;;;;;;6.50;5.03;;;15.40;99.90;;;;;;4866977;29;20488;-83
2021/05/11 22:19:19;;;;;;;8.60;7.10;;;15.50;99.90;;;;;;4841730;29;20487;-82
2021/05/11 22:23:02;;;;;;;6.10;5.50;;;15.40;99.90;;;;;;4794316;29;22407;-83
2021/05/11 22:26:05;;;;;;;;;;;;;;;;;;;;;
2021/05/11 22:32:18;;;;;;;6.87;5.43;;;15.40;99.90;;;;;;4800864;29;21287;-82
2021/05/11 22:34:51;;;;;;;6.97;5.63;;;15.40;99.90;;;;;;4849684;29;21144;-81
2021/05/11 22:40:40;;;;;;;7.93;6.80;;;15.40;99.90;;;;;;4865456;29;20908;-82
2021/05/11 22:49:59;;;;;;;8.17;5.73;;;15.50;99.90;;;;;;5003345;28;20437;-81
2021/05/11 22:52:55;;;;;;;8.63;6.10;;;15.40;99.90;;;;;;5010696;28;20422;-81
2021/05/11 22:59:56;;;;;;;7.00;6.30;;;15.30;99.90;;;;;;5011210;28;20537;-82
2021/05/11 23:03:22;;;;;;;7.57;6.77;;;15.30;99.90;;;;;;5007970;28;20458;-83
2021/05/11 23:06:34;;;;;;;;;;;;;;;;;;;;;
2021/05/11 23:10:06;;;;;;;12.03;6.10;;;15.30;99.90;;;;;;5007315;28;20444;-81
2021/05/11 23:13:28;;;;;;;;;;;;;;;;;;;;;
2021/05/11 23:27:53;;;;;;;7.93;6.40;;;15.20;99.90;;;;;;4864376;29;20463;-81
2021/05/11 23:34:41;;;;;;;;;;;;;;;;;;;;;
2021/05/11 23:42:09;;;;;;;13.57;7.40;;;15.00;99.90;;;;;;4945250;28;20492;-82
2021/05/11 23:48:25;;;;;;;8.17;7.37;;;14.90;99.90;;;;;;4981326;28;20458;-81
2021/05/11 23:51:36;;;;;;;11.77;7.70;;;14.90;99.90;;;;;;4999803;28;20642;-82
2021/05/11 23:54:32;;;;;;;7.90;7.10;;;14.90;99.90;;;;;;5003461;28;20486;-81
2021/05/11 23:57:23;;;;;;;8.37;7.53;;;14.90;99.90;;;;;;5005957;28;20458;-83
